Time;durP1;ratioP1;P1;durP2;ratioP2;P2;SDS_P1;SDS_P2;PMS_P1;PMS_P2;Temp;Humidity;BMP_temperature;BMP_pressure;BME280_temperature;BME280_humidity;BME280_pressure;Samples;Min_cycle;Max_cycle;Signal;HPM_P1;HPM_P2
2020/12/06 00:01:43;;;;;;;28.47;15.87;;;4.40;87.40;;;;;;4940448;29;20035;-93
2020/12/06 00:04:09;;;;;;;27.57;15.47;;;4.40;87.40;;;;;;4940395;29;20039;-92
2020/12/06 00:06:35;;;;;;;27.33;16.50;;;4.40;87.50;;;;;;4941905;29;20454;-92
2020/12/06 00:09:03;;;;;;;27.03;14.20;;;4.40;87.50;;;;;;4941350;29;20063;-92
2020/12/06 00:11:28;;;;;;;27.93;15.57;;;4.40;87.60;;;;;;4940943;29;20047;-93
2020/12/06 00:13:54;;;;;;;26.10;14.77;;;4.40;87.80;;;;;;4940829;29;20497;-92
2020/12/06 00:16:20;;;;;;;25.93;15.17;;;4.30;87.90;;;;;;4940739;29;20063;-92
2020/12/06 00:18:47;;;;;;;29.77;15.33;;;4.30;88.10;;;;;;4940475;29;20039;-93
2020/12/06 00:21:17;;;;;;;27.30;15.77;;;4.30;88.20;;;;;;4941565;29;20031;-93
2020/12/06 00:23:43;;;;;;;28.73;15.63;;;4.20;88.10;;;;;;4941541;29;20027;-92
2020/12/06 00:26:09;;;;;;;26.20;15.20;;;4.20;88.40;;;;;;4940254;29;20085;-93
2020/12/06 00:28:35;;;;;;;29.30;15.37;;;4.20;88.40;;;;;;4940665;29;20023;-92
2020/12/06 00:31:01;;;;;;;27.07;14.40;;;4.20;89.20;;;;;;4940393;29;20024;-93
2020/12/06 00:33:27;;;;;;;29.33;16.10;;;4.10;88.70;;;;;;4940642;29;20031;-90
2020/12/06 00:35:53;;;;;;;26.27;15.10;;;4.10;88.70;;;;;;4941745;29;20019;-92
2020/12/06 00:38:19;;;;;;;28.07;15.63;;;4.10;88.80;;;;;;4941859;29;20035;-92
2020/12/06 00:40:45;;;;;;;28.23;15.17;;;4.10;88.80;;;;;;4941155;29;20421;-92
2020/12/06 00:43:11;;;;;;;27.70;15.63;;;4.10;88.80;;;;;;4940114;29;20066;-93
2020/12/06 00:45:36;;;;;;;30.87;16.77;;;4.10;88.90;;;;;;4940507;29;20030;-93
2020/12/06 00:48:02;;;;;;;30.10;16.37;;;4.10;89.00;;;;;;4940391;29;20090;-92
2020/12/06 00:50:27;;;;;;;27.37;15.20;;;4.10;89.00;;;;;;4941638;29;20031;-93
2020/12/06 00:52:53;;;;;;;28.93;15.70;;;4.10;89.10;;;;;;4940532;29;20110;-93
2020/12/06 00:55:19;;;;;;;27.47;15.07;;;4.10;89.00;;;;;;4940574;29;20473;-93
2020/12/06 00:57:44;;;;;;;29.03;16.40;;;4.20;88.70;;;;;;4940511;29;20019;-92
2020/12/06 01:00:11;;;;;;;29.60;16.20;;;4.20;88.40;;;;;;4957337;29;20035;-92
2020/12/06 01:02:37;;;;;;;27.60;16.73;;;4.20;88.40;;;;;;4940287;29;20061;-92
2020/12/06 01:05:03;;;;;;;30.10;16.47;;;4.10;88.60;;;;;;4941473;29;20039;-92
2020/12/06 01:07:34;;;;;;;29.13;16.73;;;4.20;88.60;;;;;;4941055;29;20504;-92
2020/12/06 01:10:00;;;;;;;31.80;18.07;;;4.20;88.50;;;;;;4941014;29;20184;-93
2020/12/06 01:12:25;;;;;;;27.67;15.23;;;4.20;88.50;;;;;;4940414;29;20477;-92
2020/12/06 01:14:51;;;;;;;30.00;16.63;;;4.20;88.70;;;;;;4940147;29;20445;-91
2020/12/06 01:17:16;;;;;;;29.07;16.00;;;4.20;88.70;;;;;;4940154;29;20046;-92
2020/12/06 01:19:42;;;;;;;29.73;17.10;;;4.10;88.70;;;;;;4941158;29;20126;-92
2020/12/06 01:22:07;;;;;;;32.03;17.50;;;4.10;88.90;;;;;;4940532;29;20285;-92
2020/12/06 01:24:33;;;;;;;30.57;16.40;;;4.10;89.10;;;;;;4940106;29;20061;-92
2020/12/06 01:26:59;;;;;;;27.90;16.17;;;4.10;89.70;;;;;;4939670;29;20034;-92
2020/12/06 01:29:24;;;;;;;28.90;15.83;;;4.10;89.10;;;;;;4939983;29;20405;-93
2020/12/06 01:31:50;;;;;;;29.60;16.17;;;4.00;89.20;;;;;;4939755;29;20027;-92
2020/12/06 01:34:16;;;;;;;28.70;15.73;;;4.10;89.30;;;;;;4940902;29;20042;-93
2020/12/06 01:36:42;;;;;;;27.40;15.37;;;4.10;89.10;;;;;;4940392;28;20034;-92
2020/12/06 01:39:08;;;;;;;30.67;16.40;;;4.10;89.10;;;;;;4939101;29;20031;-92
2020/12/06 01:41:34;;;;;;;29.00;16.53;;;4.10;89.20;;;;;;4939485;29;20031;-93
2020/12/06 01:44:00;;;;;;;28.80;15.97;;;4.10;89.10;;;;;;4939190;29;20129;-92
2020/12/06 01:46:27;;;;;;;30.37;17.23;;;4.10;89.00;;;;;;4939729;29;20038;-92
2020/12/06 01:48:53;;;;;;;30.97;16.70;;;4.10;89.10;;;;;;4939939;29;20138;-92
2020/12/06 01:51:20;;;;;;;28.37;16.03;;;4.10;89.20;;;;;;4939416;29;20413;-92
2020/12/06 01:53:50;;;;;;;29.70;15.73;;;4.10;89.30;;;;;;4939288;29;20065;-92
2020/12/06 01:56:17;;;;;;;27.10;15.23;;;4.10;89.10;;;;;;4939555;29;20485;-92
2020/12/06 01:58:43;;;;;;;29.27;16.67;;;4.20;88.80;;;;;;4939224;29;20039;-92
2020/12/06 02:01:09;;;;;;;26.87;15.13;;;4.20;88.70;;;;;;4938619;29;20046;-92
2020/12/06 02:03:35;;;;;;;28.37;15.67;;;4.20;88.60;;;;;;4939364;29;20042;-92
2020/12/06 02:06:02;;;;;;;28.73;16.00;;;4.20;88.50;;;;;;4938893;29;20024;-92
2020/12/06 02:08:28;;;;;;;28.30;15.70;;;4.10;88.60;;;;;;4939180;29;20027;-92
2020/12/06 02:10:54;;;;;;;30.27;16.40;;;4.10;88.60;;;;;;4938798;29;20428;-92
2020/12/06 02:13:23;;;;;;;29.10;16.13;;;4.10;88.50;;;;;;4938373;29;20031;-93
2020/12/06 02:15:49;;;;;;;29.05;16.02;;;4.20;88.50;;;;;;4938717;29;20054;-92
2020/12/06 02:18:15;;;;;;;29.03;15.37;;;4.20;88.40;;;;;;4939466;29;20031;-92
2020/12/06 02:20:42;;;;;;;27.67;16.20;;;4.10;88.40;;;;;;4954186;29;20027;-92
2020/12/06 02:23:07;;;;;;;27.87;15.27;;;4.10;88.30;;;;;;4938354;29;20126;-90
2020/12/06 02:25:38;;;;;;;29.30;15.67;;;4.10;88.20;;;;;;4938937;29;20058;-90
2020/12/06 02:28:04;;;;;;;28.93;16.30;;;4.20;88.30;;;;;;4938124;29;20114;-90
2020/12/06 02:30:31;;;;;;;30.27;16.50;;;4.10;88.30;;;;;;4938027;29;20059;-92
2020/12/06 02:32:56;;;;;;;27.30;15.00;;;4.10;88.30;;;;;;4938344;29;20027;-93
2020/12/06 02:35:22;;;;;;;26.60;15.07;;;4.20;88.30;;;;;;4938289;29;20031;-92
2020/12/06 02:37:48;;;;;;;28.23;16.30;;;4.20;88.20;;;;;;4938071;29;20533;-91
2020/12/06 02:40:14;;;;;;;28.37;14.90;;;4.20;88.10;;;;;;4938008;29;20031;-92
2020/12/06 02:42:40;;;;;;;29.30;16.90;;;4.20;88.10;;;;;;4938689;29;20515;-92
2020/12/06 02:45:05;;;;;;;26.60;15.77;;;4.10;88.10;;;;;;4937905;29;20039;-92
2020/12/06 02:47:31;;;;;;;29.10;16.00;;;4.10;88.10;;;;;;4937814;28;20028;-92
2020/12/06 02:49:57;;;;;;;28.77;16.30;;;4.10;88.30;;;;;;4972547;28;20424;-91
2020/12/06 02:52:22;;;;;;;29.10;16.50;;;4.10;88.30;;;;;;4973437;28;20027;-91
2020/12/06 02:54:48;;;;;;;28.60;15.67;;;4.00;88.40;;;;;;4973512;28;20045;-92
2020/12/06 02:57:13;;;;;;;27.87;15.27;;;4.10;88.60;;;;;;4941546;29;20067;-91
2020/12/06 02:59:39;;;;;;;27.63;15.87;;;4.10;88.50;;;;;;4973897;28;20131;-92
2020/12/06 03:02:05;;;;;;;27.60;15.17;;;4.10;88.50;;;;;;4941083;29;20035;-91
2020/12/06 03:04:30;;;;;;;29.97;16.43;;;4.10;88.40;;;;;;4940871;29;20043;-91
2020/12/06 03:06:56;;;;;;;29.00;16.20;;;4.00;88.50;;;;;;4941401;29;20052;-91
2020/12/06 03:09:21;;;;;;;32.33;16.93;;;4.00;88.60;;;;;;4973364;28;20114;-92
2020/12/06 03:11:47;;;;;;;27.80;16.07;;;4.00;88.60;;;;;;4973266;28;20035;-92
2020/12/06 03:14:13;;;;;;;28.07;15.70;;;4.10;88.60;;;;;;4941293;29;20062;-91
2020/12/06 03:16:39;;;;;;;28.77;16.13;;;4.10;88.60;;;;;;4941092;29;20035;-92
2020/12/06 03:19:04;;;;;;;29.63;16.83;;;4.10;88.60;;;;;;4973056;28;20027;-92
2020/12/06 03:21:30;;;;;;;28.57;16.53;;;4.00;88.70;;;;;;4940861;29;20059;-92
2020/12/06 03:23:55;;;;;;;27.60;15.33;;;4.00;88.60;;;;;;4940915;29;20035;-91
2020/12/06 03:26:21;;;;;;;29.67;16.93;;;4.10;88.70;;;;;;4973595;28;20057;-91
2020/12/06 03:28:46;;;;;;;28.43;15.47;;;4.10;88.60;;;;;;4973862;28;20488;-91
2020/12/06 03:31:12;;;;;;;30.37;16.40;;;4.10;88.60;;;;;;4973766;28;20098;-92
2020/12/06 03:33:37;;;;;;;27.73;16.17;;;4.10;88.50;;;;;;4941621;29;20035;-92
2020/12/06 03:36:04;;;;;;;31.50;16.40;;;4.10;88.60;;;;;;4941460;29;20047;-92
2020/12/06 03:38:29;;;;;;;29.10;16.07;;;4.00;88.50;;;;;;4941559;29;20118;-92
2020/12/06 03:40:55;;;;;;;28.70;16.77;;;4.10;88.60;;;;;;4941258;29;20055;-92
2020/12/06 03:43:20;;;;;;;30.43;16.27;;;4.00;88.60;;;;;;4941610;29;20082;-92
2020/12/06 03:45:46;;;;;;;28.50;16.50;;;4.00;88.70;;;;;;4941378;29;20473;-92
2020/12/06 03:48:11;;;;;;;28.87;15.93;;;4.00;88.80;;;;;;4940697;29;20557;-92
2020/12/06 03:50:37;;;;;;;29.40;17.63;;;4.00;88.80;;;;;;4940798;29;20054;-92
2020/12/06 03:53:03;;;;;;;27.60;15.63;;;4.00;88.80;;;;;;4940604;29;20028;-92
2020/12/06 03:55:29;;;;;;;28.93;15.77;;;4.00;88.90;;;;;;4940893;29;20038;-92
2020/12/06 03:57:54;;;;;;;30.27;16.70;;;4.00;89.00;;;;;;4941172;29;20028;-92
2020/12/06 04:00:21;;;;;;;28.23;16.10;;;4.00;89.10;;;;;;4940568;29;20034;-91
2020/12/06 04:02:53;;;;;;;27.87;15.50;;;4.00;89.10;;;;;;4940122;29;20019;-92
2020/12/06 04:05:20;;;;;;;27.83;16.27;;;4.00;89.20;;;;;;4940332;29;20089;-91
2020/12/06 04:07:50;;;;;;;29.00;16.63;;;4.00;89.30;;;;;;4940633;29;20110;-92
2020/12/06 04:10:16;;;;;;;27.57;15.07;;;4.00;89.40;;;;;;4940221;29;20102;-91
2020/12/06 04:12:42;;;;;;;26.60;15.40;;;4.00;89.40;;;;;;4940263;29;20027;-92
2020/12/06 04:15:07;;;;;;;28.73;15.77;;;4.00;89.50;;;;;;4940438;29;20078;-92
2020/12/06 04:17:33;;;;;;;29.20;16.87;;;4.00;89.60;;;;;;4940361;29;20504;-92
2020/12/06 04:19:59;;;;;;;27.40;15.40;;;4.00;89.70;;;;;;4940054;29;20043;-92
2020/12/06 04:22:25;;;;;;;27.43;15.90;;;4.00;89.70;;;;;;4940088;29;20035;-92
2020/12/06 04:24:50;;;;;;;27.07;15.23;;;4.00;89.70;;;;;;4940217;29;20477;-92
2020/12/06 04:27:16;;;;;;;27.20;15.40;;;4.10;89.70;;;;;;4957204;29;20031;-92
2020/12/06 04:29:41;;;;;;;26.27;15.07;;;4.10;89.60;;;;;;4940318;29;20039;-92
2020/12/06 04:32:07;;;;;;;29.33;16.00;;;4.10;89.60;;;;;;4939810;29;20020;-92
2020/12/06 04:34:36;;;;;;;28.30;16.50;;;4.20;89.50;;;;;;4955882;29;20494;-92
2020/12/06 04:37:03;;;;;;;27.33;15.68;;;4.20;89.50;;;;;;4940258;29;20054;-92
2020/12/06 04:39:28;;;;;;;28.43;15.70;;;4.20;89.50;;;;;;4940059;29;20122;-92
2020/12/06 04:41:54;;;;;;;27.57;15.40;;;4.20;89.50;;;;;;4972136;28;20118;-92
2020/12/06 04:44:20;;;;;;;26.73;15.23;;;4.20;89.50;;;;;;4939649;29;20493;-92
2020/12/06 04:46:45;;;;;;;26.17;14.73;;;4.20;89.40;;;;;;4971909;28;20019;-92
2020/12/06 04:49:25;;;;;;;27.10;15.73;;;4.20;89.40;;;;;;4971849;28;20039;-91
2020/12/06 04:51:56;;;;;;;27.33;15.10;;;4.20;89.30;;;;;;4939928;29;20492;-92
2020/12/06 04:54:36;;;;;;;27.97;15.87;;;4.20;89.40;;;;;;4939460;29;20027;-92
2020/12/06 04:57:04;;;;;;;26.10;14.17;;;4.20;89.70;;;;;;4939802;29;20110;-92
2020/12/06 04:59:30;;;;;;;25.70;14.43;;;4.20;89.30;;;;;;4940980;29;20075;-92
2020/12/06 05:02:03;;;;;;;26.47;15.10;;;4.30;89.20;;;;;;4953623;29;20031;-93
2020/12/06 05:04:32;;;;;;;29.07;15.37;;;4.30;89.30;;;;;;4939890;29;20039;-92
2020/12/06 05:06:58;;;;;;;27.65;15.20;;;4.30;89.30;;;;;;4939487;29;20118;-92
2020/12/06 05:09:27;;;;;;;28.30;15.77;;;4.30;89.20;;;;;;4971982;28;20074;-92
2020/12/06 05:11:53;;;;;;;;;;;4.30;89.20;;;;;;4939712;29;20515;-92
2020/12/06 05:14:18;;;;;;;28.63;16.30;;;4.30;89.10;;;;;;4939498;29;19911;-91
2020/12/06 05:16:45;;;;;;;27.50;16.27;;;4.30;89.20;;;;;;4971764;28;20390;-92
2020/12/06 05:19:11;;;;;;;26.80;16.10;;;4.20;89.30;;;;;;4939193;29;20027;-92
2020/12/06 05:21:38;;;;;;;27.80;15.63;;;4.20;89.40;;;;;;4971299;28;20035;-92
2020/12/06 05:24:04;;;;;;;29.27;15.43;;;4.20;89.40;;;;;;4939045;29;20162;-92
2020/12/06 05:26:31;;;;;;;27.20;14.73;;;4.20;89.40;;;;;;4939277;29;20093;-92
2020/12/06 05:28:57;;;;;;;28.07;15.70;;;4.20;89.50;;;;;;4939143;29;20393;-92
2020/12/06 05:31:23;;;;;;;26.97;15.23;;;4.20;89.60;;;;;;4938641;29;20050;-92
2020/12/06 05:33:49;;;;;;;29.87;15.90;;;4.20;89.70;;;;;;4939450;29;20031;-92
2020/12/06 05:36:16;;;;;;;29.43;15.23;;;4.20;89.80;;;;;;4938898;29;20437;-92
2020/12/06 05:38:41;;;;;;;32.67;17.83;;;4.10;90.00;;;;;;4938962;29;20034;-91
2020/12/06 05:41:07;;;;;;;29.83;16.47;;;4.10;90.00;;;;;;4971273;28;20473;-92
2020/12/06 05:43:36;;;;;;;29.70;16.20;;;4.10;90.00;;;;;;4971024;28;20397;-92
2020/12/06 05:46:10;;;;;;;28.70;16.80;;;4.10;90.00;;;;;;4938906;29;20405;-92
2020/12/06 05:48:38;;;;;;;28.00;15.43;;;4.10;90.10;;;;;;4938643;29;20521;-92
2020/12/06 05:51:04;;;;;;;28.27;15.97;;;4.10;90.00;;;;;;4938772;29;20027;-92
2020/12/06 05:53:31;;;;;;;29.33;16.23;;;4.20;90.00;;;;;;4938768;29;20030;-92
2020/12/06 05:56:09;;;;;;;29.70;16.37;;;4.20;90.10;;;;;;4938743;29;20027;-92
2020/12/06 05:58:34;;;;;;;28.57;16.13;;;4.10;90.10;;;;;;4938905;29;20110;-92
2020/12/06 06:01:01;;;;;;;29.50;16.90;;;4.10;90.10;;;;;;4970535;28;20493;-92
2020/12/06 06:03:35;;;;;;;29.43;15.40;;;4.10;90.20;;;;;;4938642;29;20031;-92
2020/12/06 06:06:04;;;;;;;31.10;17.90;;;4.10;90.20;;;;;;4938822;29;20019;-93
2020/12/06 06:08:30;;;;;;;;;;;4.10;90.50;;;;;;4939376;29;20042;-91
2020/12/06 06:11:20;;;;;;;29.20;16.50;;;4.00;90.30;;;;;;4939119;29;19929;-92
2020/12/06 06:14:00;;;;;;;29.87;16.10;;;4.10;90.50;;;;;;4938192;29;20027;-92
2020/12/06 06:16:31;;;;;;;29.57;16.63;;;4.10;90.40;;;;;;4938295;29;20123;-92
2020/12/06 06:18:59;;;;;;;28.53;17.00;;;4.00;90.40;;;;;;4938860;29;20051;-92
2020/12/06 06:21:29;;;;;;;30.60;16.63;;;4.00;90.40;;;;;;4938476;29;20032;-92
2020/12/06 06:23:57;;;;;;;32.50;17.20;;;4.00;90.50;;;;;;4939248;29;20029;-92
2020/12/06 06:26:32;;;;;;;30.75;18.23;;;4.10;90.40;;;;;;4942242;29;20034;-92
2020/12/06 06:28:58;;;;;;;31.37;17.13;;;4.10;90.40;;;;;;4942534;29;20122;-92
2020/12/06 06:31:27;;;;;;;30.77;16.93;;;4.10;90.40;;;;;;4974262;28;20066;-91
2020/12/06 06:33:54;;;;;;;29.27;17.07;;;4.10;90.40;;;;;;4942349;29;20035;-92
2020/12/06 06:36:28;;;;;;;31.03;17.50;;;4.10;90.40;;;;;;4942024;29;20027;-91
2020/12/06 06:38:55;;;;;;;31.40;18.17;;;4.10;90.50;;;;;;4942342;29;20035;-92
2020/12/06 06:41:24;;;;;;;30.53;17.73;;;4.10;90.60;;;;;;4942316;29;20039;-92
2020/12/06 06:43:50;;;;;;;31.80;18.65;;;4.10;90.50;;;;;;4974291;28;20063;-92
2020/12/06 06:46:18;;;;;;;30.83;18.07;;;4.10;90.60;;;;;;4974307;28;20180;-92
2020/12/06 06:48:50;;;;;;;31.70;18.27;;;4.10;90.50;;;;;;4941984;29;20493;-92
2020/12/06 06:51:23;;;;;;;33.70;18.40;;;4.10;90.60;;;;;;4941817;29;20027;-91
2020/12/06 06:53:50;;;;;;;31.33;17.87;;;4.10;90.60;;;;;;4941866;29;20552;-91
2020/12/06 06:56:19;;;;;;;31.83;18.43;;;4.10;90.50;;;;;;4942055;29;20027;-91
2020/12/06 06:58:46;;;;;;;;;;;4.10;90.80;;;;;;4942565;29;20111;-92
2020/12/06 07:01:23;;;;;;;29.33;17.20;;;4.20;90.90;;;;;;4974008;28;19914;-91
2020/12/06 07:03:49;;;;;;;31.23;17.53;;;4.20;90.50;;;;;;4941970;29;20607;-92
2020/12/06 07:06:47;;;;;;;30.93;18.37;;;4.20;90.60;;;;;;4942076;29;20027;-92
2020/12/06 07:09:34;;;;;;;31.43;16.97;;;4.20;90.50;;;;;;4942555;29;20051;-91
2020/12/06 07:12:00;;;;;;;29.90;17.37;;;4.20;90.60;;;;;;4957498;29;20031;-92
2020/12/06 07:14:28;;;;;;;33.83;18.97;;;4.10;90.50;;;;;;4942272;29;20544;-92
2020/12/06 07:16:55;;;;;;;29.90;17.60;;;4.20;90.60;;;;;;4940819;29;20036;-91
2020/12/06 07:19:21;;;;;;;31.33;17.93;;;4.20;90.50;;;;;;4941030;29;20023;-91
2020/12/06 07:21:48;;;;;;;33.30;18.77;;;4.20;90.70;;;;;;4941027;29;20540;-91
2020/12/06 07:24:15;;;;;;;31.30;18.80;;;4.20;90.60;;;;;;4940920;29;20122;-91
2020/12/06 07:26:46;;;;;;;30.67;18.20;;;4.20;90.70;;;;;;4940831;29;20050;-92
2020/12/06 07:29:14;;;;;;;30.47;18.00;;;4.20;90.60;;;;;;4941071;29;20019;-91
2020/12/06 07:31:40;;;;;;;35.42;20.58;;;4.20;90.70;;;;;;4940782;29;20034;-91
2020/12/06 07:34:06;;;;;;;30.87;18.50;;;4.20;90.90;;;;;;4940871;29;20122;-91
2020/12/06 07:36:36;;;;;;;30.97;18.37;;;4.20;90.80;;;;;;4939662;29;20038;-91
2020/12/06 07:39:15;;;;;;;33.33;19.20;;;4.10;90.80;;;;;;4941396;29;20090;-91
2020/12/06 07:41:48;;;;;;;31.25;18.38;;;4.20;90.80;;;;;;4940705;29;20485;-91
2020/12/06 07:44:14;;;;;;;34.33;19.53;;;4.20;90.80;;;;;;4949196;29;20045;-92
2020/12/06 07:46:40;;;;;;;32.47;19.43;;;4.20;90.90;;;;;;4944077;29;20027;-91
2020/12/06 07:49:07;;;;;;;33.80;18.97;;;4.10;90.90;;;;;;4945451;29;20190;-92
2020/12/06 07:51:32;;;;;;;32.40;19.33;;;4.20;91.10;;;;;;4940890;29;20074;-91
2020/12/06 07:54:01;;;;;;;33.57;20.47;;;4.20;90.80;;;;;;4941709;29;20093;-91
2020/12/06 07:56:29;;;;;;;33.25;19.95;;;4.20;90.80;;;;;;4942883;29;20031;-91
2020/12/06 07:59:16;;;;;;;32.90;19.27;;;4.20;90.80;;;;;;4940409;29;20031;-91
2020/12/06 08:01:43;;;;;;;33.73;19.27;;;4.20;90.80;;;;;;4940277;29;20114;-93
2020/12/06 08:04:13;;;;;;;31.80;19.47;;;4.20;90.90;;;;;;4940148;29;20031;-92
2020/12/06 08:06:43;;;;;;;35.00;20.10;;;4.20;91.10;;;;;;4939997;29;20047;-92
2020/12/06 08:09:11;;;;;;;33.27;18.83;;;4.20;91.10;;;;;;4940398;29;20063;-92
2020/12/06 08:11:43;;;;;;;35.20;19.37;;;4.20;90.90;;;;;;4939820;29;20019;-91
2020/12/06 08:14:10;;;;;;;33.37;18.87;;;4.20;90.90;;;;;;4939886;29;20031;-92
2020/12/06 08:16:35;;;;;;;33.10;19.97;;;4.20;90.90;;;;;;4939830;29;20038;-91
2020/12/06 08:19:02;;;;;;;33.47;20.27;;;4.30;90.90;;;;;;4939792;29;20397;-91
2020/12/06 08:21:44;;;;;;;34.77;19.93;;;4.20;90.90;;;;;;4939749;29;20031;-91
2020/12/06 08:24:23;;;;;;;31.00;18.40;;;4.20;90.90;;;;;;4939808;29;20042;-91
2020/12/06 08:26:50;;;;;;;34.53;19.98;;;4.20;91.00;;;;;;4940026;29;20031;-91
2020/12/06 08:29:16;;;;;;;33.70;19.57;;;4.20;91.00;;;;;;4939866;29;20117;-91
2020/12/06 08:31:43;;;;;;;34.90;19.50;;;4.20;91.00;;;;;;4939340;29;20398;-91
2020/12/06 08:34:16;;;;;;;36.07;20.20;;;4.20;91.00;;;;;;4939547;29;20074;-91
2020/12/06 08:36:43;;;;;;;34.30;19.43;;;4.20;91.10;;;;;;4939589;29;20027;-92
2020/12/06 08:39:20;;;;;;;32.60;19.07;;;4.30;91.00;;;;;;4939551;29;20490;-91
2020/12/06 08:41:46;;;;;;;31.27;18.03;;;4.20;91.00;;;;;;4939223;29;20501;-92
2020/12/06 08:44:12;;;;;;;33.10;19.13;;;4.20;91.20;;;;;;4939137;29;20054;-91
2020/12/06 08:46:49;;;;;;;30.90;17.90;;;4.30;91.10;;;;;;4939256;29;20359;-92
2020/12/06 08:49:17;;;;;;;29.77;17.53;;;4.30;91.00;;;;;;4939372;29;20047;-92
2020/12/06 08:51:53;;;;;;;31.17;18.77;;;4.30;91.00;;;;;;4939074;29;20027;-92
2020/12/06 08:54:35;;;;;;;31.13;18.70;;;4.30;91.00;;;;;;4939174;29;20027;-92
2020/12/06 08:57:08;;;;;;;30.87;18.07;;;4.40;91.00;;;;;;4939224;29;20114;-92
2020/12/06 08:59:38;;;;;;;31.10;17.30;;;4.30;91.30;;;;;;4939152;29;20481;-92
2020/12/06 09:02:05;;;;;;;31.47;19.10;;;4.40;91.10;;;;;;4938999;29;20031;-91
2020/12/06 09:04:32;;;;;;;30.90;18.03;;;4.30;91.10;;;;;;4938849;29;20034;-92
2020/12/06 09:06:58;;;;;;;32.07;18.37;;;4.40;91.10;;;;;;4938979;29;20023;-93
2020/12/06 09:09:24;;;;;;;33.07;19.07;;;4.30;91.20;;;;;;4938853;29;20397;-93
2020/12/06 09:11:53;;;;;;;31.60;19.13;;;4.40;91.20;;;;;;4939064;29;20082;-92
2020/12/06 09:14:19;;;;;;;34.43;18.63;;;4.40;91.40;;;;;;4939268;29;20031;-92
2020/12/06 09:16:45;;;;;;;32.50;18.90;;;4.30;91.20;;;;;;4939093;29;20430;-92
2020/12/06 09:19:10;;;;;;;34.50;20.43;;;4.40;91.20;;;;;;4938834;29;20031;-92
2020/12/06 09:21:36;;;;;;;32.23;18.67;;;4.40;91.30;;;;;;4938780;29;20063;-92
2020/12/06 09:24:02;;;;;;;33.27;19.40;;;4.40;91.20;;;;;;4938786;29;20030;-93
2020/12/06 09:26:28;;;;;;;32.20;18.53;;;4.40;91.20;;;;;;4939090;29;20023;-92
2020/12/06 09:28:53;;;;;;;31.73;19.77;;;4.40;91.20;;;;;;4939012;29;20027;-91
2020/12/06 09:31:23;;;;;;;34.83;20.17;;;4.50;91.20;;;;;;4938670;29;20062;-92
2020/12/06 09:33:48;;;;;;;32.35;18.77;;;4.50;91.20;;;;;;4938844;29;20398;-92
2020/12/06 09:36:15;;;;;;;34.03;20.87;;;4.50;91.30;;;;;;4939114;29;20564;-92
2020/12/06 09:38:40;;;;;;;33.60;18.63;;;4.50;91.20;;;;;;4938868;29;20066;-92
2020/12/06 09:41:06;;;;;;;35.40;20.73;;;4.50;91.20;;;;;;4939044;29;20453;-92
2020/12/06 09:43:32;;;;;;;33.60;19.47;;;4.50;91.80;;;;;;4939182;29;20035;-93
2020/12/06 09:45:58;;;;;;;33.77;18.70;;;4.50;91.30;;;;;;4939018;29;20061;-92
2020/12/06 09:48:24;;;;;;;32.33;19.67;;;4.50;91.30;;;;;;4938471;29;20055;-92
2020/12/06 09:50:50;;;;;;;33.87;19.87;;;4.50;91.30;;;;;;4938398;29;20031;-93
2020/12/06 09:53:16;;;;;;;35.13;19.10;;;4.50;91.30;;;;;;4938294;29;20020;-92
2020/12/06 09:55:42;;;;;;;36.90;20.40;;;4.40;91.40;;;;;;4938287;29;20034;-92
2020/12/06 09:58:07;;;;;;;38.03;20.13;;;4.50;91.40;;;;;;4937835;29;20038;-92
2020/12/06 10:00:33;;;;;;;36.00;19.40;;;4.50;91.40;;;;;;4938123;29;20046;-92
2020/12/06 10:02:59;;;;;;;33.93;20.00;;;4.50;91.60;;;;;;4937873;29;20500;-92
2020/12/06 10:05:24;;;;;;;36.77;21.00;;;4.40;91.50;;;;;;4938673;29;20031;-92
2020/12/06 10:07:50;;;;;;;33.23;20.07;;;4.40;91.40;;;;;;4938942;29;20037;-92
2020/12/06 10:10:15;;;;;;;33.97;19.50;;;4.50;91.50;;;;;;4938264;29;20027;-92
2020/12/06 10:12:41;;;;;;;32.63;18.77;;;4.50;91.40;;;;;;4938367;29;20077;-92
2020/12/06 10:15:06;;;;;;;30.77;18.23;;;4.50;91.50;;;;;;4938326;29;20023;-92
2020/12/06 10:17:32;;;;;;;32.47;19.87;;;4.50;91.50;;;;;;4938762;29;20457;-92
2020/12/06 10:19:58;;;;;;;34.90;20.40;;;4.60;91.50;;;;;;4938208;29;20085;-92
2020/12/06 10:22:24;;;;;;;33.40;19.70;;;4.50;91.50;;;;;;4938299;29;20063;-92
2020/12/06 10:24:50;;;;;;;33.70;20.07;;;4.50;91.60;;;;;;4954233;28;20043;-91
2020/12/06 10:27:15;;;;;;;33.67;20.27;;;4.50;91.60;;;;;;4938149;29;20110;-92
2020/12/06 10:29:41;;;;;;;35.73;20.30;;;4.50;91.60;;;;;;4937963;29;20042;-91
2020/12/06 10:32:06;;;;;;;34.50;21.43;;;4.50;91.60;;;;;;4937670;29;20032;-92
2020/12/06 10:34:32;;;;;;;36.63;21.20;;;4.50;91.60;;;;;;4937895;29;20082;-91
2020/12/06 10:36:59;;;;;;;34.63;21.33;;;4.50;91.60;;;;;;4938015;29;20034;-92
2020/12/06 10:39:25;;;;;;;38.73;20.53;;;4.50;91.60;;;;;;4938630;29;20121;-91
2020/12/06 10:41:56;;;;;;;35.50;20.47;;;4.50;91.70;;;;;;4938890;29;20023;-93
2020/12/06 10:44:23;;;;;;;38.70;21.87;;;4.50;91.70;;;;;;4938778;29;20039;-92
2020/12/06 10:46:49;;;;;;;35.40;20.30;;;4.50;91.70;;;;;;4938893;29;20032;-93
2020/12/06 10:49:15;;;;;;;37.97;21.30;;;4.50;91.80;;;;;;4925065;29;20055;-91
2020/12/06 10:51:42;;;;;;;33.53;20.20;;;4.50;91.80;;;;;;4919877;29;20023;-92
2020/12/06 10:54:08;;;;;;;38.43;22.97;;;4.50;91.90;;;;;;4919841;29;20042;-92
2020/12/06 10:56:36;;;;;;;36.57;21.93;;;4.50;91.80;;;;;;4919686;29;20087;-92
2020/12/06 10:59:01;;;;;;;35.10;19.87;;;4.50;91.90;;;;;;4920023;29;20098;-94
2020/12/06 11:01:28;;;;;;;35.67;20.97;;;4.50;91.90;;;;;;4951594;29;20478;-93
2020/12/06 11:03:54;;;;;;;36.13;20.97;;;4.50;91.90;;;;;;4919928;29;20063;-93
2020/12/06 11:06:23;;;;;;;35.37;21.20;;;4.50;91.90;;;;;;4919799;29;20035;-92
2020/12/06 11:08:49;;;;;;;;;;;4.50;91.90;;;;;;4920939;29;20024;-92
2020/12/06 11:11:16;;;;;;;35.40;20.17;;;4.50;92.00;;;;;;4922713;29;19914;-92
2020/12/06 11:13:42;;;;;;;36.43;22.23;;;4.50;92.20;;;;;;4923306;29;20028;-92
2020/12/06 11:16:08;;;;;;;36.07;22.43;;;4.40;92.10;;;;;;4922557;29;20032;-92
2020/12/06 11:18:34;;;;;;;35.00;21.37;;;4.50;92.10;;;;;;4923035;29;20024;-92
2020/12/06 11:21:00;;;;;;;37.07;22.17;;;4.50;92.10;;;;;;4954661;29;20557;-92
2020/12/06 11:23:26;;;;;;;33.90;21.50;;;4.50;92.40;;;;;;4922571;29;20034;-92
2020/12/06 11:25:52;;;;;;;38.47;21.17;;;4.50;92.10;;;;;;4922283;29;20019;-92
2020/12/06 11:28:18;;;;;;;36.23;21.10;;;4.50;92.20;;;;;;4922297;29;20023;-91
2020/12/06 11:30:44;;;;;;;37.60;22.43;;;4.50;92.10;;;;;;4922000;29;20114;-92
2020/12/06 11:33:10;;;;;;;37.60;22.03;;;4.50;92.00;;;;;;4922397;29;20055;-92
2020/12/06 11:35:36;;;;;;;35.07;21.83;;;4.50;92.00;;;;;;4954320;29;20028;-92
2020/12/06 11:38:01;;;;;;;35.93;21.90;;;4.60;92.00;;;;;;4954203;29;20024;-92
2020/12/06 11:40:27;;;;;;;34.50;20.90;;;4.60;91.90;;;;;;4922404;29;20020;-91
2020/12/06 11:42:55;;;;;;;37.73;21.13;;;4.60;91.90;;;;;;4954105;29;20029;-91
2020/12/06 11:45:21;;;;;;;34.10;21.80;;;4.70;91.90;;;;;;4922001;29;20031;-93
2020/12/06 11:47:47;;;;;;;37.30;21.40;;;4.60;91.90;;;;;;4957284;28;20036;-93
2020/12/06 11:50:12;;;;;;;39.43;22.57;;;4.60;92.00;;;;;;4973192;28;20030;-91
2020/12/06 11:52:38;;;;;;;36.53;21.73;;;4.60;91.90;;;;;;4940931;29;20019;-90
2020/12/06 11:55:04;;;;;;;37.80;22.87;;;4.50;92.30;;;;;;4940574;29;20035;-92
2020/12/06 11:57:29;;;;;;;40.10;23.40;;;4.50;92.10;;;;;;4972781;28;20396;-92
2020/12/06 11:59:55;;;;;;;37.33;22.00;;;4.50;92.20;;;;;;4941029;29;20034;-93
2020/12/06 12:02:20;;;;;;;37.17;21.97;;;4.50;92.00;;;;;;4972463;28;20058;-93
2020/12/06 12:04:46;;;;;;;39.00;22.63;;;4.50;92.00;;;;;;4940468;29;20036;-92
2020/12/06 12:07:12;;;;;;;38.57;22.63;;;4.50;92.30;;;;;;4972346;28;20118;-92
2020/12/06 12:09:37;;;;;;;40.67;24.53;;;4.50;92.00;;;;;;4972608;28;20027;-92
2020/12/06 12:12:03;;;;;;;41.70;24.27;;;4.50;92.00;;;;;;4972541;28;20031;-93
2020/12/06 12:14:29;;;;;;;39.13;22.80;;;4.50;92.20;;;;;;4973046;28;20457;-92
2020/12/06 12:16:54;;;;;;;41.33;24.70;;;4.50;92.10;;;;;;4940748;29;20115;-92
2020/12/06 12:19:20;;;;;;;40.83;23.70;;;4.60;92.00;;;;;;4972493;28;20031;-92
2020/12/06 12:21:45;;;;;;;43.00;24.43;;;4.50;92.00;;;;;;4972003;28;20031;-92
2020/12/06 12:24:11;;;;;;;39.00;23.50;;;4.60;92.00;;;;;;4940897;29;20027;-92
2020/12/06 12:26:36;;;;;;;39.97;23.57;;;4.50;92.30;;;;;;4971998;28;20034;-91
2020/12/06 12:29:02;;;;;;;39.27;23.87;;;4.50;92.10;;;;;;4972492;28;20541;-92
2020/12/06 12:31:31;;;;;;;42.37;24.13;;;4.50;92.10;;;;;;4971868;28;21070;-89
2020/12/06 12:33:57;;;;;;;41.40;23.80;;;4.50;92.00;;;;;;4940960;29;20058;-92
2020/12/06 12:36:23;;;;;;;41.27;24.70;;;4.60;92.00;;;;;;4940193;29;20031;-93
2020/12/06 12:38:48;;;;;;;40.13;23.37;;;4.60;92.10;;;;;;4967565;28;20027;-93